Time;durP1;ratioP1;P1;durP2;ratioP2;P2;SDS_P1;SDS_P2;PMS_P1;PMS_P2;Temp;Humidity;BMP_temperature;BMP_pressure;BME280_temperature;BME280_humidity;BME280_pressure;Samples;Min_cycle;Max_cycle;Signal;HPM_P1;HPM_P2
2021/06/09 00:00:43;;;;;;;0.43;0.43;;;15.60;99.90;;;;;;5081252;28;20472;-81
2021/06/09 00:03:10;;;;;;;0.30;0.10;;;15.80;99.90;;;;;;5059291;28;20459;-82
2021/06/09 00:05:37;;;;;;;0.40;0.33;;;14.60;99.90;;;;;;5061718;28;20483;-82
2021/06/09 00:08:04;;;;;;;0.30;0.20;;;14.80;99.90;;;;;;5066333;28;20476;-82
2021/06/09 00:10:30;;;;;;;0.50;0.50;;;14.50;99.90;;;;;;5066025;28;20505;-81
2021/06/09 00:12:57;;;;;;;1.43;1.43;;;15.80;99.90;;;;;;5062636;28;20540;-80
2021/06/09 00:15:25;;;;;;;0.30;0.20;;;15.90;99.90;;;;;;5058733;28;20470;-81
2021/06/09 00:17:53;;;;;;;0.30;0.20;;;14.50;99.90;;;;;;5058526;28;20491;-80
2021/06/09 00:20:22;;;;;;;0.30;0.10;;;14.50;99.90;;;;;;5062752;28;20550;-82
2021/06/09 00:22:49;;;;;;;0.30;0.20;;;14.70;99.90;;;;;;5060021;28;20475;-80
2021/06/09 00:25:18;;;;;;;0.30;0.10;;;14.50;99.90;;;;;;5058353;28;20456;-80
2021/06/09 00:27:49;;;;;;;0.30;0.20;;;15.50;99.90;;;;;;5068783;28;20498;-80
2021/06/09 00:30:20;;;;;;;0.43;0.40;;;14.30;99.90;;;;;;5056973;28;20587;-80
2021/06/09 00:32:47;;;;;;;0.30;0.20;;;14.60;99.90;;;;;;5060664;28;20463;-81
2021/06/09 00:35:14;;;;;;;1.03;1.03;;;15.70;99.90;;;;;;5052813;28;20483;-80
2021/06/09 00:37:40;;;;;;;0.30;0.20;;;15.60;99.90;;;;;;5064721;28;20487;-80
2021/06/09 00:40:10;;;;;;;0.67;0.47;;;14.80;99.90;;;;;;5061991;28;20567;-80
2021/06/09 00:42:36;;;;;;;0.30;0.10;;;14.90;99.90;;;;;;5057440;28;20547;-80
2021/06/09 00:45:04;;;;;;;1.07;0.97;;;14.70;99.90;;;;;;5065569;28;20460;-80
2021/06/09 00:47:30;;;;;;;0.30;0.20;;;15.70;99.90;;;;;;5039817;28;20520;-80
2021/06/09 00:49:58;;;;;;;0.30;0.17;;;14.60;99.90;;;;;;5052260;28;20484;-82
2021/06/09 00:52:25;;;;;;;0.30;0.10;;;15.10;99.90;;;;;;5052676;28;20465;-80
2021/06/09 00:54:52;;;;;;;0.30;0.27;;;14.80;99.90;;;;;;5067774;28;20449;-80
2021/06/09 00:57:20;;;;;;;0.30;0.20;;;14.30;99.90;;;;;;5052153;28;20496;-81
2021/06/09 00:59:46;;;;;;;0.30;0.20;;;14.30;99.90;;;;;;5054475;28;21053;-82
2021/06/09 01:02:13;;;;;;;0.30;0.20;;;15.40;99.90;;;;;;5036895;28;20459;-82
2021/06/09 01:04:40;;;;;;;0.30;0.17;;;15.10;99.90;;;;;;5059173;28;20490;-80
2021/06/09 01:07:09;;;;;;;0.30;0.10;;;15.00;99.90;;;;;;5058823;28;20601;-82
2021/06/09 01:09:36;;;;;;;0.30;0.20;;;14.60;99.90;;;;;;5058695;28;20437;-83
2021/06/09 01:12:03;;;;;;;0.30;0.20;;;15.50;99.90;;;;;;5057113;28;20534;-80
2021/06/09 01:14:31;;;;;;;0.30;0.20;;;14.10;99.90;;;;;;5063431;28;20531;-83
2021/06/09 01:16:57;;;;;;;0.30;0.20;;;15.00;99.90;;;;;;5049472;28;20975;-82
2021/06/09 01:19:24;;;;;;;0.30;0.20;;;14.80;99.90;;;;;;5058647;28;20482;-81
2021/06/09 01:21:51;;;;;;;0.30;0.20;;;15.30;99.90;;;;;;5059804;28;20601;-80
2021/06/09 01:24:18;;;;;;;0.30;0.30;;;14.70;99.90;;;;;;5060109;28;20528;-81
2021/06/09 01:26:44;;;;;;;0.30;0.20;;;15.20;99.90;;;;;;5061468;28;20449;-80
2021/06/09 01:29:11;;;;;;;0.60;0.60;;;15.10;99.90;;;;;;5053321;28;21025;-84
2021/06/09 01:31:38;;;;;;;0.30;0.10;;;14.90;99.90;;;;;;5058236;28;20922;-83
2021/06/09 01:34:05;;;;;;;0.30;0.20;;;14.00;99.90;;;;;;5053760;28;20959;-82
2021/06/09 01:36:33;;;;;;;0.30;0.20;;;14.10;99.90;;;;;;5061884;28;20464;-80
2021/06/09 01:39:07;;;;;;;0.87;0.87;;;15.00;99.90;;;;;;5057333;28;20482;-81
2021/06/09 01:41:33;;;;;;;1.80;1.70;;;15.10;99.90;;;;;;5063078;28;20447;-80
2021/06/09 01:44:01;;;;;;;0.30;0.30;;;15.30;99.90;;;;;;5053675;28;20487;-80
2021/06/09 01:46:27;;;;;;;0.30;0.30;;;13.90;99.90;;;;;;5061880;28;21002;-82
2021/06/09 01:48:54;;;;;;;0.30;0.20;;;14.00;99.90;;;;;;5060189;28;20460;-80
2021/06/09 01:51:21;;;;;;;0.30;0.20;;;14.60;99.90;;;;;;5061931;28;20459;-82
2021/06/09 01:53:48;;;;;;;0.30;0.10;;;15.00;99.90;;;;;;5065863;28;20456;-81
2021/06/09 01:56:17;;;;;;;0.30;0.20;;;14.90;99.90;;;;;;5058281;28;20455;-82
2021/06/09 01:58:43;;;;;;;0.30;0.20;;;14.30;99.90;;;;;;5052807;28;20465;-82
2021/06/09 02:01:15;;;;;;;1.70;0.97;;;14.90;99.90;;;;;;5056295;28;20564;-82
2021/06/09 02:03:42;;;;;;;0.30;0.20;;;13.70;99.90;;;;;;5062802;28;21014;-81
2021/06/09 02:06:09;;;;;;;0.30;0.10;;;14.50;99.90;;;;;;5061226;28;20465;-82
2021/06/09 02:08:36;;;;;;;0.40;0.40;;;15.00;99.90;;;;;;5053061;28;20471;-82
2021/06/09 02:11:02;;;;;;;0.30;0.20;;;14.20;99.90;;;;;;5059511;28;20465;-83
2021/06/09 02:13:31;;;;;;;0.30;0.10;;;14.70;99.90;;;;;;5057906;28;20501;-82
2021/06/09 02:15:59;;;;;;;1.03;0.93;;;14.50;99.90;;;;;;5056522;28;20479;-81
2021/06/09 02:18:27;;;;;;;0.40;0.40;;;14.00;99.90;;;;;;5054868;28;20447;-81
2021/06/09 02:20:56;;;;;;;0.30;0.20;;;14.00;99.90;;;;;;5038737;28;21351;-82
2021/06/09 02:23:27;;;;;;;0.30;0.20;;;13.60;99.90;;;;;;5059475;28;20907;-82
2021/06/09 02:25:56;;;;;;;0.30;0.27;;;14.00;99.90;;;;;;5064727;28;20471;-82
2021/06/09 02:28:24;;;;;;;0.30;0.20;;;13.90;99.90;;;;;;5054887;28;20444;-84
2021/06/09 02:30:53;;;;;;;0.30;0.10;;;13.80;99.90;;;;;;5063832;28;20497;-81
2021/06/09 02:33:22;;;;;;;0.30;0.10;;;14.30;99.90;;;;;;5077048;28;20454;-83
2021/06/09 02:35:50;;;;;;;0.30;0.17;;;14.40;99.90;;;;;;5061014;28;20479;-82
2021/06/09 02:38:19;;;;;;;0.70;0.70;;;13.80;99.90;;;;;;5064963;28;20594;-81
2021/06/09 02:40:49;;;;;;;0.30;0.20;;;14.10;99.90;;;;;;5060258;28;20533;-80
2021/06/09 02:43:16;;;;;;;0.50;0.50;;;14.00;99.90;;;;;;5063949;28;20462;-81
2021/06/09 02:45:46;;;;;;;0.30;0.20;;;14.20;99.90;;;;;;5066885;28;20514;-83
2021/06/09 02:48:16;;;;;;;0.30;0.10;;;14.90;99.90;;;;;;5069371;28;20448;-83
2021/06/09 02:50:43;;;;;;;0.30;0.20;;;15.10;99.90;;;;;;5051859;28;20490;-82
2021/06/09 02:53:14;;;;;;;0.30;0.20;;;14.50;99.90;;;;;;5061729;28;20460;-81
2021/06/09 02:55:52;;;;;;;0.30;0.20;;;14.00;99.90;;;;;;5056592;28;20485;-83
2021/06/09 02:58:30;;;;;;;0.30;0.13;;;15.50;99.90;;;;;;5045839;28;20448;-83
2021/06/09 03:01:06;;;;;;;0.30;0.10;;;14.80;99.90;;;;;;5065597;28;20464;-81
2021/06/09 03:03:45;;;;;;;0.30;0.13;;;14.20;99.90;;;;;;5040210;28;20527;-81
2021/06/09 03:06:21;;;;;;;0.30;0.10;;;14.40;99.90;;;;;;5063038;28;20473;-82
2021/06/09 03:08:56;;;;;;;0.30;0.30;;;14.80;99.90;;;;;;5054674;28;20529;-81
2021/06/09 03:11:29;;;;;;;0.30;0.10;;;15.30;99.90;;;;;;5057971;28;20562;-82
2021/06/09 03:14:04;;;;;;;0.30;0.20;;;15.00;99.90;;;;;;5056834;28;20448;-81
2021/06/09 03:16:35;;;;;;;0.30;0.10;;;15.70;99.90;;;;;;5058629;28;20460;-82
2021/06/09 03:19:09;;;;;;;0.30;0.30;;;14.50;99.90;;;;;;5064278;28;20473;-81
2021/06/09 03:21:42;;;;;;;0.30;0.20;;;15.50;99.90;;;;;;5074473;28;20480;-84
2021/06/09 03:24:15;;;;;;;0.30;0.10;;;15.40;99.90;;;;;;5074375;28;20463;-84
2021/06/09 03:26:50;;;;;;;0.30;0.10;;;14.50;99.90;;;;;;5074606;28;20512;-82
2021/06/09 03:29:28;;;;;;;0.30;0.10;;;14.10;99.90;;;;;;5074513;28;20448;-81
2021/06/09 03:32:00;;;;;;;0.30;0.20;;;15.80;99.90;;;;;;5064344;28;20494;-82
2021/06/09 03:34:32;;;;;;;0.30;0.10;;;15.70;99.90;;;;;;5058871;28;20437;-81
2021/06/09 03:37:01;;;;;;;0.30;0.30;;;14.70;99.90;;;;;;5067950;28;20533;-81
2021/06/09 03:39:29;;;;;;;0.30;0.10;;;16.00;99.90;;;;;;5068490;28;20548;-81
2021/06/09 03:41:58;;;;;;;0.30;0.10;;;15.40;99.90;;;;;;5064393;28;20511;-81
2021/06/09 03:44:28;;;;;;;0.30;0.20;;;14.50;99.90;;;;;;5060767;28;20453;-82
2021/06/09 03:46:57;;;;;;;0.30;0.20;;;14.90;99.90;;;;;;5066273;28;20523;-81
2021/06/09 03:49:25;;;;;;;0.30;0.20;;;16.10;99.90;;;;;;5063088;28;20758;-81
2021/06/09 03:51:54;;;;;;;1.13;1.07;;;14.90;99.90;;;;;;5062914;28;20479;-80
2021/06/09 03:54:21;;;;;;;0.30;0.10;;;15.50;99.90;;;;;;5054322;28;20453;-81
2021/06/09 03:56:50;;;;;;;0.60;0.60;;;15.90;99.90;;;;;;5060307;28;20456;-80
2021/06/09 03:59:21;;;;;;;0.30;0.20;;;15.30;99.90;;;;;;5057616;28;20568;-80
2021/06/09 04:01:48;;;;;;;0.30;0.10;;;15.00;99.90;;;;;;5062289;28;21099;-80
2021/06/09 04:04:19;;;;;;;0.30;0.10;;;15.20;99.90;;;;;;5058412;28;21064;-83
2021/06/09 04:06:47;;;;;;;1.03;1.03;;;15.20;99.90;;;;;;5060794;28;20448;-80
2021/06/09 04:09:19;;;;;;;0.30;0.20;;;17.40;99.90;;;;;;5056242;28;20533;-81
2021/06/09 04:11:46;;;;;;;0.23;0.10;;;16.00;99.90;;;;;;5062159;28;20552;-80
2021/06/09 04:14:19;;;;;;;0.30;0.20;;;15.90;99.90;;;;;;5063240;28;20996;-81
2021/06/09 04:16:48;;;;;;;0.67;0.67;;;17.50;99.90;;;;;;5049380;28;20473;-82
2021/06/09 04:19:21;;;;;;;0.20;0.10;;;15.80;99.90;;;;;;5053226;28;20475;-81
2021/06/09 04:21:47;;;;;;;0.30;0.20;;;16.30;99.90;;;;;;5056113;28;20530;-81
2021/06/09 04:24:15;;;;;;;0.30;0.10;;;16.70;99.90;;;;;;5055404;28;20973;-81
2021/06/09 04:26:42;;;;;;;0.30;0.20;;;15.60;99.90;;;;;;5062726;28;20481;-80
2021/06/09 04:29:10;;;;;;;0.30;0.20;;;17.10;99.90;;;;;;5057905;28;20453;-80
2021/06/09 04:31:36;;;;;;;0.83;0.83;;;17.20;99.90;;;;;;5052942;28;20858;-80
2021/06/09 04:34:03;;;;;;;0.93;0.70;;;17.40;99.90;;;;;;5060749;28;20457;-80
2021/06/09 04:36:29;;;;;;;0.30;0.17;;;17.00;99.90;;;;;;5061642;28;20445;-81
2021/06/09 04:38:56;;;;;;;1.17;1.17;;;16.90;99.90;;;;;;5058156;28;20515;-82
2021/06/09 04:41:25;;;;;;;0.30;0.10;;;17.50;99.90;;;;;;5041078;28;20475;-81
2021/06/09 04:43:53;;;;;;;0.40;0.30;;;15.80;99.90;;;;;;5057579;28;20498;-81
2021/06/09 04:46:20;;;;;;;0.40;0.33;;;15.80;99.90;;;;;;5051756;28;20632;-80
2021/06/09 04:49:01;;;;;;;0.30;0.20;;;16.40;99.90;;;;;;5058165;28;20459;-80
2021/06/09 04:51:30;;;;;;;0.40;0.30;;;16.60;99.90;;;;;;5057761;28;20446;-80
2021/06/09 04:53:57;;;;;;;0.30;0.20;;;16.50;99.90;;;;;;5059571;28;20517;-80
2021/06/09 04:56:24;;;;;;;0.70;0.50;;;16.60;99.90;;;;;;5059205;28;20446;-80
2021/06/09 04:58:51;;;;;;;0.30;0.20;;;16.30;99.90;;;;;;5065007;28;20463;-81
2021/06/09 05:01:17;;;;;;;0.30;0.20;;;17.40;99.90;;;;;;5058814;28;20570;-81
2021/06/09 05:03:46;;;;;;;0.40;0.20;;;16.80;99.90;;;;;;5055879;28;20460;-79
2021/06/09 05:06:13;;;;;;;0.30;0.20;;;18.30;99.90;;;;;;5065522;28;20530;-81
2021/06/09 05:08:40;;;;;;;1.43;1.43;;;16.40;99.90;;;;;;5059915;28;20526;-82
2021/06/09 05:11:15;;;;;;;0.30;0.10;;;18.60;99.90;;;;;;5062874;28;20533;-80
2021/06/09 05:13:45;;;;;;;1.70;1.60;;;17.10;99.90;;;;;;5064740;28;20456;-80
2021/06/09 05:16:15;;;;;;;0.30;0.20;;;18.30;99.90;;;;;;5047959;28;20472;-81
2021/06/09 05:18:44;;;;;;;1.27;1.17;;;17.00;99.90;;;;;;5070092;28;20494;-81
2021/06/09 05:21:11;;;;;;;2.83;2.73;;;18.60;99.90;;;;;;5059879;28;20526;-82
2021/06/09 05:23:39;;;;;;;0.60;0.60;;;17.50;99.90;;;;;;5071893;28;20449;-80
2021/06/09 05:26:08;;;;;;;0.30;0.20;;;17.00;99.90;;;;;;5057052;28;20563;-82
2021/06/09 05:28:39;;;;;;;0.30;0.20;;;17.30;99.90;;;;;;5057628;28;20551;-81
2021/06/09 05:31:07;;;;;;;0.30;0.20;;;18.20;99.90;;;;;;5064335;28;20577;-84
2021/06/09 05:33:36;;;;;;;0.30;0.20;;;17.40;99.90;;;;;;5062826;28;20447;-81
2021/06/09 05:36:03;;;;;;;1.03;1.03;;;18.00;99.90;;;;;;5063386;28;20488;-83
2021/06/09 05:38:30;;;;;;;0.30;0.27;;;17.10;99.90;;;;;;5058419;28;20441;-81
2021/06/09 05:40:59;;;;;;;1.43;1.33;;;17.60;99.90;;;;;;5057695;28;20470;-81
2021/06/09 05:43:28;;;;;;;0.30;0.20;;;17.80;99.90;;;;;;5059826;28;20472;-80
2021/06/09 05:45:56;;;;;;;0.90;0.90;;;17.60;99.90;;;;;;5058250;28;20445;-82
2021/06/09 05:48:23;;;;;;;0.30;0.20;;;17.80;99.90;;;;;;5054585;28;20461;-83
2021/06/09 05:50:51;;;;;;;0.30;0.10;;;18.20;99.90;;;;;;5052972;28;20455;-83
2021/06/09 05:53:18;;;;;;;2.70;2.53;;;17.80;99.90;;;;;;5064077;28;20456;-83
2021/06/09 05:55:47;;;;;;;0.30;0.20;;;17.80;99.90;;;;;;5062490;28;20487;-80
2021/06/09 05:58:17;;;;;;;0.30;0.20;;;17.80;99.90;;;;;;5063837;28;20450;-87
2021/06/09 06:00:44;;;;;;;0.87;0.87;;;18.30;99.90;;;;;;5065869;28;20473;-83
2021/06/09 06:03:10;;;;;;;0.30;0.20;;;18.20;99.90;;;;;;5070625;28;20450;-82
2021/06/09 06:05:41;;;;;;;0.30;0.20;;;18.70;99.90;;;;;;5063087;28;20506;-83
2021/06/09 06:08:08;;;;;;;0.30;0.20;;;18.50;99.90;;;;;;5055068;28;20462;-81
2021/06/09 06:10:34;;;;;;;0.30;0.20;;;18.00;99.90;;;;;;5059090;28;20465;-80
2021/06/09 06:13:01;;;;;;;0.30;0.20;;;18.40;99.90;;;;;;5057480;28;20529;-84
2021/06/09 06:15:28;;;;;;;0.30;0.20;;;18.30;99.90;;;;;;5066526;28;20445;-80
2021/06/09 06:17:54;;;;;;;0.30;0.20;;;18.50;99.90;;;;;;5058094;28;20971;-79
2021/06/09 06:20:23;;;;;;;3.33;0.60;;;17.90;99.90;;;;;;5061081;28;20533;-81
2021/06/09 06:22:52;;;;;;;0.30;0.20;;;18.20;99.90;;;;;;5058455;28;20451;-84
2021/06/09 06:25:22;;;;;;;30.03;27.43;;;18.20;99.90;;;;;;5061052;28;20536;-78
2021/06/09 06:27:50;;;;;;;37.90;34.50;;;18.10;99.90;;;;;;5053214;28;20523;-78
2021/06/09 06:30:18;;;;;;;38.70;35.30;;;17.60;99.90;;;;;;5059073;28;20447;-79
2021/06/09 06:32:47;;;;;;;38.63;34.77;;;17.30;99.90;;;;;;5056343;28;20517;-81
2021/06/09 06:35:15;;;;;;;38.17;34.57;;;17.20;99.90;;;;;;5050889;28;20467;-79
2021/06/09 06:37:42;;;;;;;41.03;36.90;;;17.30;99.90;;;;;;5054026;28;20470;-78
2021/06/09 06:40:12;;;;;;;40.10;36.20;;;17.40;99.90;;;;;;5050612;28;20519;-81
2021/06/09 06:42:38;;;;;;;42.53;38.40;;;17.30;99.90;;;;;;5059908;28;20854;-86
2021/06/09 06:45:06;;;;;;;40.53;36.97;;;17.40;99.90;;;;;;5049151;28;20476;-82
2021/06/09 06:47:33;;;;;;;40.70;37.00;;;17.00;99.90;;;;;;5053822;28;20501;-79
2021/06/09 06:50:00;;;;;;;41.10;37.20;;;17.30;99.90;;;;;;5062979;28;20511;-85
2021/06/09 06:52:30;;;;;;;43.97;39.67;;;17.30;99.90;;;;;;5051406;28;20454;-82
2021/06/09 06:55:00;;;;;;;42.57;38.30;;;17.30;99.90;;;;;;5050957;28;20458;-82
2021/06/09 06:57:31;;;;;;;41.70;37.90;;;17.30;99.90;;;;;;5076000;28;20458;-86
2021/06/09 06:59:58;;;;;;;41.37;37.70;;;17.40;99.90;;;;;;5070564;28;20478;-83
2021/06/09 07:02:25;;;;;;;41.43;37.43;;;17.40;99.90;;;;;;5079941;28;20453;-87
2021/06/09 07:04:51;;;;;;;45.33;40.93;;;17.30;99.90;;;;;;5072736;28;20485;-84
2021/06/09 07:07:19;;;;;;;42.37;38.43;;;17.50;99.90;;;;;;5079648;28;20626;-84
2021/06/09 07:09:46;;;;;;;44.37;40.23;;;17.30;99.90;;;;;;5078447;28;20472;-85
2021/06/09 07:12:12;;;;;;;43.13;39.20;;;17.40;99.90;;;;;;5071091;28;20869;-80
2021/06/09 07:14:42;;;;;;;41.90;38.10;;;17.80;99.90;;;;;;5061690;28;20445;-79
2021/06/09 07:17:10;;;;;;;42.07;38.17;;;18.00;99.90;;;;;;5059916;28;20608;-80
2021/06/09 07:19:37;;;;;;;43.67;39.40;;;17.80;99.90;;;;;;5065287;28;20474;-80
2021/06/09 07:22:05;;;;;;;41.20;37.60;;;17.90;99.90;;;;;;5054661;28;20500;-79
2021/06/09 07:24:32;;;;;;;42.43;38.63;;;17.90;99.90;;;;;;5058007;28;20489;-78
2021/06/09 07:27:00;;;;;;;39.53;35.93;;;17.90;99.90;;;;;;5061216;28;20464;-80
2021/06/09 07:29:28;;;;;;;40.07;36.57;;;18.00;99.90;;;;;;5057158;28;20450;-79
2021/06/09 07:31:56;;;;;;;37.77;34.30;;;18.00;99.90;;;;;;5057643;28;20447;-80
2021/06/09 07:34:23;;;;;;;38.00;34.40;;;18.20;99.90;;;;;;5049529;28;20442;-83
2021/06/09 07:36:53;;;;;;;38.00;34.80;;;18.20;99.90;;;;;;5047610;28;20538;-80
2021/06/09 07:39:25;;;;;;;38.07;34.57;;;18.50;99.90;;;;;;5053464;28;20469;-79
2021/06/09 07:41:53;;;;;;;35.73;32.40;;;18.40;99.90;;;;;;5051070;28;20458;-80
2021/06/09 07:44:22;;;;;;;35.40;32.43;;;18.80;99.90;;;;;;5049286;28;21102;-79
2021/06/09 07:46:51;;;;;;;35.73;32.60;;;18.50;99.90;;;;;;5055253;28;20656;-80
2021/06/09 07:49:20;;;;;;;34.03;31.20;;;18.50;99.90;;;;;;5054299;28;20454;-83
2021/06/09 07:51:48;;;;;;;31.43;28.87;;;19.00;99.90;;;;;;5066706;28;20453;-82
2021/06/09 07:54:16;;;;;;;30.77;27.90;;;18.70;99.90;;;;;;5062090;28;20449;-81
2021/06/09 07:56:44;;;;;;;29.33;26.70;;;18.80;99.90;;;;;;5062649;28;20463;-78
2021/06/09 07:59:13;;;;;;;28.27;25.70;;;19.00;99.90;;;;;;5061836;28;20453;-81
2021/06/09 08:01:42;;;;;;;25.77;23.00;;;18.90;99.90;;;;;;5057119;28;20477;-77
2021/06/09 08:04:10;;;;;;;22.53;20.73;;;18.70;99.90;;;;;;5061127;28;20453;-78
2021/06/09 08:06:38;;;;;;;22.37;20.53;;;18.70;99.90;;;;;;5058330;28;20484;-76
2021/06/09 08:09:05;;;;;;;22.03;20.33;;;18.90;99.90;;;;;;5053809;28;21088;-76
2021/06/09 08:11:32;;;;;;;21.20;19.47;;;19.40;99.90;;;;;;5053299;28;20466;-75
2021/06/09 08:13:58;;;;;;;20.83;19.13;;;19.20;99.90;;;;;;5054831;28;20469;-80
2021/06/09 08:16:27;;;;;;;20.50;18.70;;;19.40;99.90;;;;;;5061445;28;20451;-79
2021/06/09 08:18:55;;;;;;;18.20;16.77;;;19.50;99.90;;;;;;5058672;28;20490;-80
2021/06/09 08:21:25;;;;;;;16.53;15.33;;;19.70;99.90;;;;;;5063166;28;20559;-75
2021/06/09 08:23:53;;;;;;;16.70;15.40;;;19.60;99.90;;;;;;5058379;28;20463;-76
2021/06/09 08:26:23;;;;;;;15.27;14.07;;;19.90;99.90;;;;;;5054178;28;20528;-76
2021/06/09 08:28:50;;;;;;;12.60;11.60;;;20.20;99.90;;;;;;5051035;28;20463;-79
2021/06/09 08:31:18;;;;;;;11.70;10.80;;;19.70;99.90;;;;;;5062471;28;20517;-81
2021/06/09 08:33:45;;;;;;;10.60;9.80;;;19.50;99.90;;;;;;5052583;28;20547;-78
2021/06/09 08:36:13;;;;;;;10.40;9.60;;;;;;;;;;5055851;28;20931;-82
2021/06/09 08:38:42;;;;;;;11.13;10.03;;;;;;;;;;5053783;28;20563;-83
2021/06/09 08:41:10;;;;;;;8.63;8.03;;;;;;;;;;5055984;28;20480;-79
2021/06/09 08:43:38;;;;;;;8.23;7.30;;;;;;;;;;5052740;28;20476;-78
2021/06/09 08:46:06;;;;;;;7.43;6.73;;;;;;;;;;5056894;28;21202;-78
2021/06/09 08:48:35;;;;;;;7.10;6.60;;;;;;;;;;5052341;28;20733;-78
2021/06/09 08:51:03;;;;;;;7.10;6.60;;;;;;;;;;5055484;28;20462;-79
2021/06/09 08:53:30;;;;;;;7.00;6.50;;;;;;;;;;5063968;28;20460;-84
2021/06/09 08:55:59;;;;;;;7.20;6.70;;;;;;;;;;5074148;28;20460;-83
2021/06/09 08:58:27;;;;;;;7.50;7.00;;;;;;;;;;5063087;28;20944;-86
2021/06/09 09:00:54;;;;;;;6.47;6.07;;;;;;;;;;5060932;28;20478;-85
2021/06/09 09:03:21;;;;;;;4.80;4.50;;;;;;;;;;5065995;28;20489;-85
2021/06/09 09:05:47;;;;;;;5.20;4.70;;;;;;;;;;5069633;28;20461;-83
2021/06/09 09:08:14;;;;;;;4.30;4.00;;;;;;;;;;5055911;28;20448;-83
2021/06/09 09:10:43;;;;;;;3.73;3.43;;;;;;;;;;5063876;28;20463;-82
2021/06/09 09:13:11;;;;;;;3.37;3.17;;;;;;;;;;5067944;28;20453;-82
2021/06/09 09:15:40;;;;;;;4.40;4.00;;;;;;;;;;5070659;28;20449;-82
2021/06/09 09:18:08;;;;;;;6.60;3.63;;;;;;;;;;5069008;28;20445;-84
2021/06/09 09:20:37;;;;;;;3.10;2.90;;;;;;;;;;5054606;28;20512;-84
2021/06/09 09:23:17;;;;;;;3.20;3.00;;;;;;;;;;5067308;28;20446;-85
2021/06/09 09:25:44;;;;;;;3.60;3.30;;;;;;;;;;5066883;28;20447;-86
2021/06/09 09:28:21;;;;;;;3.13;2.83;;;;;;;;;;5043282;28;20445;-86
2021/06/09 09:30:50;;;;;;;2.90;2.70;;;;;;;;;;5064633;28;20472;-83
2021/06/09 09:33:18;;;;;;;2.73;2.60;;;;;;;;;;5071023;28;20452;-85
2021/06/09 09:35:46;;;;;;;2.90;2.70;;;;;;;;;;5062485;28;20552;-84
2021/06/09 09:38:14;;;;;;;3.40;3.00;;;;;;;;;;5045999;28;20453;-84
2021/06/09 09:40:59;;;;;;;3.13;2.67;;;;;;;;;;5069813;28;20465;-85
2021/06/09 09:43:40;;;;;;;2.57;2.40;;;;;;;;;;5057181;28;22438;-84
2021/06/09 09:46:10;;;;;;;2.23;2.13;;;;;;;;;;5068760;28;20459;-85
2021/06/09 09:48:40;;;;;;;4.33;2.53;;;;;;;;;;5061224;28;20469;-85
2021/06/09 09:51:06;;;;;;;2.20;2.10;;;;;;;;;;5067140;28;21249;-84
2021/06/09 09:53:34;;;;;;;3.07;2.57;;;;;;;;;;5066702;28;20451;-86
2021/06/09 09:56:05;;;;;;;2.43;2.30;;;;;;;;;;5066954;28;20452;-84
2021/06/09 09:58:33;;;;;;;2.43;2.30;;;;;;;;;;5061027;28;20505;-84
2021/06/09 10:01:18;;;;;;;2.90;2.70;;;;;;;;;;5063393;28;20509;-84
2021/06/09 10:03:46;;;;;;;2.60;2.40;;;;;;;;;;5061604;28;20491;-85
2021/06/09 10:06:16;;;;;;;2.60;2.40;;;;;;;;;;5075414;28;20455;-85
2021/06/09 10:08:43;;;;;;;2.90;2.70;;;;;;;;;;5062855;28;20471;-85
2021/06/09 10:11:11;;;;;;;2.63;2.43;;;;;;;;;;5060712;28;20456;-84
2021/06/09 10:13:37;;;;;;;2.60;2.37;;;;;;;;;;5062057;28;20460;-84
2021/06/09 10:16:04;;;;;;;2.43;2.33;;;;;;;;;;5062311;28;20448;-85
2021/06/09 10:18:32;;;;;;;2.87;2.63;;;;;;;;;;5041192;28;20536;-85
2021/06/09 10:21:12;;;;;;;3.00;2.80;;;;;;;;;;5056938;28;20534;-84
2021/06/09 10:23:39;;;;;;;4.43;2.80;;;;;;;;;;5063910;28;20557;-83
2021/06/09 10:26:07;;;;;;;3.20;2.80;;;;;;;;;;5060038;28;20765;-83
2021/06/09 10:28:56;;;;;;;2.80;2.53;;;;;;;;;;5060320;28;20984;-84
2021/06/09 10:31:22;;;;;;;2.83;2.63;;;;;;;;;;5054726;28;20431;-84
2021/06/09 10:33:51;;;;;;;2.87;2.63;;;;;;;;;;5073166;28;20475;-87
2021/06/09 10:36:21;;;;;;;3.10;2.90;;;;;;;;;;5077142;28;20450;-84
2021/06/09 10:38:48;;;;;;;3.00;2.37;;;;;;;;;;5066139;28;20498;-88
2021/06/09 10:41:15;;;;;;;2.87;2.60;;;;;;;;;;5058614;28;20532;-84
2021/06/09 10:43:43;;;;;;;2.37;2.27;;;;;;;;;;5059895;28;20540;-78
2021/06/09 10:46:10;;;;;;;2.37;2.20;;;;;;;;;;5063140;28;20444;-78
2021/06/09 10:48:37;;;;;;;2.33;2.00;;;;;;;;;;5060445;28;20439;-76
2021/06/09 10:51:05;;;;;;;4.33;3.30;;;;;;;;;;5061938;28;20533;-77
2021/06/09 10:53:32;;;;;;;2.10;1.90;;;;;;;;;;5071819;28;20535;-77
2021/06/09 10:56:02;;;;;;;2.10;2.00;;;;;;;;;;5053206;28;20958;-77
2021/06/09 10:58:29;;;;;;;3.53;2.97;;;;;;;;;;5057132;28;20439;-78
2021/06/09 11:00:56;;;;;;;2.87;2.57;;;;;;;;;;5055871;28;20475;-75
2021/06/09 11:03:23;;;;;;;2.43;2.23;;;;;;;;;;5064931;28;20475;-77
2021/06/09 11:05:50;;;;;;;2.50;1.97;;;;;;;;;;5055175;28;20535;-76
2021/06/09 11:08:19;;;;;;;2.87;2.67;;;;;;;;;;5059684;28;20438;-76
2021/06/09 11:10:47;;;;;;;2.33;2.13;;;;;;;;;;5063402;28;20457;-76
2021/06/09 11:13:27;;;;;;;5.80;2.60;;;;;;;;;;5058219;28;20554;-76
2021/06/09 11:16:03;;;;;;;1.90;1.80;;;;;;;;;;5065702;28;20749;-75
2021/06/09 11:18:34;;;;;;;2.57;2.37;;;;;;;;;;5050203;28;20452;-75
2021/06/09 11:21:02;;;;;;;2.33;2.13;;;;;;;;;;5063162;28;20492;-79
2021/06/09 11:23:32;;;;;;;6.40;2.87;;;;;;;;;;5068170;28;21039;-76
2021/06/09 11:25:59;;;;;;;3.23;3.03;;;;;;;;;;5053790;28;20460;-78
2021/06/09 11:28:39;;;;;;;3.00;2.80;;;;;;;;;;5057154;28;20454;-84
2021/06/09 11:31:06;;;;;;;3.23;3.03;;;;;;;;;;5061364;28;20456;-81
2021/06/09 11:33:40;;;;;;;3.40;3.20;;;;;;;;;;5060440;28;20460;-77
2021/06/09 11:36:08;;;;;;;3.37;3.17;;;;;;;;;;5058853;28;20514;-76
2021/06/09 11:38:39;;;;;;;3.70;3.40;;;;;;;;;;5059452;28;20512;-77
2021/06/09 11:41:07;;;;;;;3.50;3.30;;;;;;;;;;5064981;28;20551;-79
2021/06/09 11:43:38;;;;;;;5.63;3.10;;;;;;;;;;5066360;28;20459;-78
2021/06/09 11:46:06;;;;;;;3.27;2.97;;;;;;;;;;5064219;28;20457;-76
2021/06/09 11:48:33;;;;;;;3.80;3.33;;;;;;;;;;5057679;28;20484;-74
2021/06/09 11:51:15;;;;;;;3.13;2.93;;;;;;;;;;5054387;28;20477;-76
2021/06/09 11:53:44;;;;;;;3.30;3.10;;;;;;;;;;5045057;28;20458;-76
2021/06/09 11:56:15;;;;;;;3.17;2.97;;;;;;;;;;5054260;28;20471;-75
2021/06/09 11:58:58;;;;;;;4.70;4.40;;;;;;;;;;5061198;28;20477;-76
2021/06/09 12:01:25;;;;;;;4.60;4.20;;;;;;;;;;5056889;28;20490;-76
2021/06/09 12:04:13;;;;;;;4.30;3.70;;;;;;;;;;5057302;28;20954;-76
2021/06/09 12:06:40;;;;;;;4.50;4.20;;;;;;;;;;5068760;28;20539;-79
2021/06/09 12:09:11;;;;;;;4.40;4.20;;;;;;;;;;5066555;28;20503;-80
2021/06/09 12:11:38;;;;;;;4.40;4.10;;;;;;;;;;5069572;28;20460;-79
2021/06/09 12:14:21;;;;;;;3.97;3.67;;;;;;;;;;5073189;28;20473;-80
2021/06/09 12:16:49;;;;;;;4.47;4.17;;;;;;;;;;5076711;28;20452;-81
2021/06/09 12:19:34;;;;;;;4.80;4.50;;;;;;;;;;5066658;28;20453;-81
2021/06/09 12:22:03;;;;;;;5.17;4.77;;;;;;;;;;5054024;28;20482;-78
2021/06/09 12:24:31;;;;;;;4.87;4.57;;;;;;;;;;5068968;28;20449;-79
2021/06/09 12:27:00;;;;;;;5.00;4.60;;;;;;;;;;5064672;28;20449;-79
2021/06/09 12:29:28;;;;;;;4.70;4.30;;;;;;;;;;5063970;28;20452;-79
2021/06/09 12:31:55;;;;;;;4.87;4.57;;;;;;;;;;5066776;28;20494;-76
2021/06/09 12:34:23;;;;;;;5.70;5.30;;;;;;;;;;5062188;28;20455;-77
2021/06/09 12:36:54;;;;;;;6.60;6.07;;;;;;;;;;5060326;28;20504;-79
2021/06/09 12:39:22;;;;;;;5.70;5.30;;;;;;;;;;5055767;28;20479;-76
2021/06/09 12:41:50;;;;;;;5.10;4.80;;;;;;;;;;5063418;28;20503;-76
2021/06/09 12:44:20;;;;;;;4.73;4.43;;;;;;;;;;5071281;28;20463;-75
2021/06/09 12:46:54;;;;;;;5.60;5.20;;;;;;;;;;5054924;28;20441;-77
2021/06/09 12:49:21;;;;;;;5.50;5.10;;;;;;;;;;5067338;28;20487;-77
2021/06/09 12:51:59;;;;;;;5.23;4.93;;;;;;;;;;5058905;28;20449;-77
2021/06/09 12:54:26;;;;;;;5.23;4.77;;;;;;;;;;5059631;28;20455;-75
2021/06/09 12:56:55;;;;;;;5.50;5.10;;;;;;;;;;5063731;28;20449;-75
2021/06/09 12:59:32;;;;;;;5.80;5.40;;;;;;;;;;5067923;28;20460;-76
2021/06/09 13:01:59;;;;;;;5.23;4.93;;;;;;;;;;5062774;28;20476;-75
2021/06/09 13:04:33;;;;;;;5.90;5.60;;;;;;;;;;5043661;28;20462;-75
2021/06/09 13:06:59;;;;;;;6.70;5.30;;;;;;;;;;5061516;28;20450;-75
2021/06/09 13:09:26;;;;;;;6.27;5.87;;;;;;;;;;5064280;28;20441;-80
2021/06/09 13:11:54;;;;;;;5.90;5.60;;;;;;;;;;5057491;28;20469;-78
2021/06/09 13:14:31;;;;;;;5.93;5.43;;;;;;;;;;5057255;28;20458;-75
2021/06/09 13:17:01;;;;;;;5.80;5.40;;;;;;;;;;5066999;28;20509;-77
2021/06/09 13:19:28;;;;;;;6.00;5.60;;;;;;;;;;5064043;28;20514;-77
2021/06/09 13:21:55;;;;;;;6.00;5.60;;;;;;;;;;5057942;28;20475;-81
2021/06/09 13:24:26;;;;;;;6.43;5.83;;;;;;;;;;5044003;28;20461;-79
2021/06/09 13:26:54;;;;;;;7.47;5.90;;;;;;;;;;5061252;28;20625;-80
2021/06/09 13:29:22;;;;;;;6.00;5.50;;;;;;;;;;5061043;28;20505;-80
2021/06/09 13:31:52;;;;;;;4.73;4.43;;;;;;;;;;5062576;28;20948;-80